sensor_id;sensor_type;location;lat;lon;timestamp;temperature;humidity
39079;DHT22;24829;49.208;12.080;2022-10-17T00:00:53;13.80;99.90
39079;DHT22;24829;49.208;12.080;2022-10-17T00:03:18;13.80;99.90
39079;DHT22;24829;49.208;12.080;2022-10-17T00:05:46;13.80;99.90
39079;DHT22;24829;49.208;12.080;2022-10-17T00:08:14;13.80;99.90
39079;DHT22;24829;49.208;12.080;2022-10-17T00:10:39;13.80;99.90
39079;DHT22;24829;49.208;12.080;2022-10-17T00:13:06;13.80;99.90
39079;DHT22;24829;49.208;12.080;2022-10-17T00:15:32;13.80;99.90
39079;DHT22;24829;49.208;12.080;2022-10-17T00:17:58;13.80;99.90
39079;DHT22;24829;49.208;12.080;2022-10-17T00:20:23;13.80;99.90
39079;DHT22;24829;49.208;12.080;2022-10-17T00:22:49;13.80;99.90
39079;DHT22;24829;49.208;12.080;2022-10-17T00:25:15;13.70;99.90
39079;DHT22;24829;49.208;12.080;2022-10-17T00:27:41;13.70;99.90
39079;DHT22;24829;49.208;12.080;2022-10-17T00:30:10;13.70;99.90
39079;DHT22;24829;49.208;12.080;2022-10-17T00:32:36;13.70;99.90
39079;DHT22;24829;49.208;12.080;2022-10-17T00:35:02;13.70;99.90
39079;DHT22;24829;49.208;12.080;2022-10-17T00:37:29;13.70;99.90
39079;DHT22;24829;49.208;12.080;2022-10-17T00:39:55;13.70;99.90
39079;DHT22;24829;49.208;12.080;2022-10-17T00:42:21;13.70;99.90
39079;DHT22;24829;49.208;12.080;2022-10-17T00:47:18;13.70;99.90
39079;DHT22;24829;49.208;12.080;2022-10-17T00:49:44;13.70;99.90
39079;DHT22;24829;49.208;12.080;2022-10-17T00:52:18;13.60;99.90
39079;DHT22;24829;49.208;12.080;2022-10-17T00:54:48;13.60;99.90
39079;DHT22;24829;49.208;12.080;2022-10-17T00:57:15;13.60;99.90
39079;DHT22;24829;49.208;12.080;2022-10-17T00:59:43;13.50;99.90
39079;DHT22;24829;49.208;12.080;2022-10-17T01:02:14;13.40;99.90
39079;DHT22;24829;49.208;12.080;2022-10-17T01:04:41;13.30;99.90
39079;DHT22;24829;49.208;12.080;2022-10-17T01:07:08;13.20;99.90
39079;DHT22;24829;49.208;12.080;2022-10-17T01:09:34;13.20;99.90
39079;DHT22;24829;49.208;12.080;2022-10-17T01:22:58;12.90;99.90
39079;DHT22;24829;49.208;12.080;2022-10-17T01:28:35;12.90;99.90
39079;DHT22;24829;49.208;12.080;2022-10-17T01:31:12;12.90;99.90
39079;DHT22;24829;49.208;12.080;2022-10-17T01:39:23;13.00;99.90
39079;DHT22;24829;49.208;12.080;2022-10-17T01:42:02;13.00;99.90
39079;DHT22;24829;49.208;12.080;2022-10-17T01:47:21;12.90;99.90
39079;DHT22;24829;49.208;12.080;2022-10-17T01:49:50;12.90;99.90
39079;DHT22;24829;49.208;12.080;2022-10-17T01:52:23;12.80;99.90
39079;DHT22;24829;49.208;12.080;2022-10-17T01:54:54;12.80;99.90
39079;DHT22;24829;49.208;12.080;2022-10-17T01:57:29;12.80;99.90
39079;DHT22;24829;49.208;12.080;2022-10-17T01:59:56;12.70;99.90
39079;DHT22;24829;49.208;12.080;2022-10-17T02:02:23;12.60;99.90
39079;DHT22;24829;49.208;12.080;2022-10-17T02:04:51;12.60;99.90
39079;DHT22;24829;49.208;12.080;2022-10-17T02:07:16;12.60;99.90
39079;DHT22;24829;49.208;12.080;2022-10-17T02:09:43;12.50;99.90
39079;DHT22;24829;49.208;12.080;2022-10-17T02:17:35;12.40;99.90
39079;DHT22;24829;49.208;12.080;2022-10-17T02:20:24;12.40;99.90
39079;DHT22;24829;49.208;12.080;2022-10-17T02:30:43;12.20;99.90
39079;DHT22;24829;49.208;12.080;2022-10-17T02:33:17;12.20;99.90
39079;DHT22;24829;49.208;12.080;2022-10-17T02:35:49;12.20;99.90
39079;DHT22;24829;49.208;12.080;2022-10-17T02:38:19;12.20;99.90
39079;DHT22;24829;49.208;12.080;2022-10-17T02:40:45;12.10;99.90
39079;DHT22;24829;49.208;12.080;2022-10-17T02:43:13;12.10;99.90
39079;DHT22;24829;49.208;12.080;2022-10-17T02:45:39;12.00;99.90
39079;DHT22;24829;49.208;12.080;2022-10-17T02:48:11;12.00;99.90
39079;DHT22;24829;49.208;12.080;2022-10-17T02:53:19;12.00;99.90
39079;DHT22;24829;49.208;12.080;2022-10-17T02:55:53;12.00;99.90
39079;DHT22;24829;49.208;12.080;2022-10-17T02:58:26;12.10;99.90
39079;DHT22;24829;49.208;12.080;2022-10-17T03:00:53;12.10;99.90
39079;DHT22;24829;49.208;12.080;2022-10-17T03:03:24;12.00;99.90
39079;DHT22;24829;49.208;12.080;2022-10-17T03:05:51;12.00;99.90
39079;DHT22;24829;49.208;12.080;2022-10-17T03:08:17;12.00;99.90
39079;DHT22;24829;49.208;12.080;2022-10-17T03:10:42;12.00;99.90
39079;DHT22;24829;49.208;12.080;2022-10-17T03:13:08;12.00;99.90
39079;DHT22;24829;49.208;12.080;2022-10-17T03:15:34;12.00;99.90
39079;DHT22;24829;49.208;12.080;2022-10-17T03:17:59;12.00;99.90
39079;DHT22;24829;49.208;12.080;2022-10-17T03:20:25;11.90;99.90
39079;DHT22;24829;49.208;12.080;2022-10-17T03:22:51;11.70;99.90
39079;DHT22;24829;49.208;12.080;2022-10-17T03:25:16;11.70;99.90
39079;DHT22;24829;49.208;12.080;2022-10-17T03:27:42;11.60;99.90
39079;DHT22;24829;49.208;12.080;2022-10-17T03:30:08;11.60;99.90
39079;DHT22;24829;49.208;12.080;2022-10-17T03:32:33;11.50;99.90
39079;DHT22;24829;49.208;12.080;2022-10-17T03:34:59;11.50;99.90
39079;DHT22;24829;49.208;12.080;2022-10-17T03:37:25;11.40;99.90
39079;DHT22;24829;49.208;12.080;2022-10-17T03:39:50;11.40;99.90
39079;DHT22;24829;49.208;12.080;2022-10-17T03:42:16;11.40;99.90
39079;DHT22;24829;49.208;12.080;2022-10-17T03:44:41;11.50;99.90
39079;DHT22;24829;49.208;12.080;2022-10-17T03:47:07;11.50;99.90
39079;DHT22;24829;49.208;12.080;2022-10-17T03:49:32;11.50;99.90
39079;DHT22;24829;49.208;12.080;2022-10-17T03:51:58;11.60;99.90
39079;DHT22;24829;49.208;12.080;2022-10-17T03:54:23;11.60;99.90
39079;DHT22;24829;49.208;12.080;2022-10-17T03:56:49;11.60;99.90
39079;DHT22;24829;49.208;12.080;2022-10-17T03:59:15;11.60;99.90
39079;DHT22;24829;49.208;12.080;2022-10-17T04:01:41;11.60;99.90
39079;DHT22;24829;49.208;12.080;2022-10-17T04:04:07;11.60;99.90
39079;DHT22;24829;49.208;12.080;2022-10-17T04:06:34;11.60;99.90
39079;DHT22;24829;49.208;12.080;2022-10-17T04:09:00;11.50;99.90
39079;DHT22;24829;49.208;12.080;2022-10-17T04:11:25;11.50;99.90
39079;DHT22;24829;49.208;12.080;2022-10-17T04:13:52;11.50;99.90
39079;DHT22;24829;49.208;12.080;2022-10-17T04:16:18;11.50;99.90
39079;DHT22;24829;49.208;12.080;2022-10-17T04:18:44;11.50;99.90
39079;DHT22;24829;49.208;12.080;2022-10-17T04:21:10;11.50;99.90
39079;DHT22;24829;49.208;12.080;2022-10-17T04:23:36;11.50;99.90
39079;DHT22;24829;49.208;12.080;2022-10-17T04:26:03;11.50;99.90
39079;DHT22;24829;49.208;12.080;2022-10-17T04:28:29;11.40;99.90
39079;DHT22;24829;49.208;12.080;2022-10-17T04:31:06;11.50;99.90
39079;DHT22;24829;49.208;12.080;2022-10-17T04:33:32;11.40;99.90
39079;DHT22;24829;49.208;12.080;2022-10-17T04:36:19;11.40;99.90
39079;DHT22;24829;49.208;12.080;2022-10-17T04:38:45;11.40;99.90
39079;DHT22;24829;49.208;12.080;2022-10-17T04:41:13;11.30;99.90
39079;DHT22;24829;49.208;12.080;2022-10-17T04:43:39;11.30;99.90
39079;DHT22;24829;49.208;12.080;2022-10-17T04:46:11;11.30;99.90
39079;DHT22;24829;49.208;12.080;2022-10-17T04:48:37;11.30;99.90
39079;DHT22;24829;49.208;12.080;2022-10-17T04:51:11;11.30;99.90
39079;DHT22;24829;49.208;12.080;2022-10-17T04:53:38;11.30;99.90
39079;DHT22;24829;49.208;12.080;2022-10-17T04:58:34;11.30;99.90
39079;DHT22;24829;49.208;12.080;2022-10-17T05:01:04;11.30;99.90
39079;DHT22;24829;49.208;12.080;2022-10-17T05:03:29;11.30;99.90
39079;DHT22;24829;49.208;12.080;2022-10-17T05:05:55;11.30;99.90
39079;DHT22;24829;49.208;12.080;2022-10-17T05:08:20;11.30;99.90
39079;DHT22;24829;49.208;12.080;2022-10-17T05:10:46;11.20;99.90
39079;DHT22;24829;49.208;12.080;2022-10-17T05:13:12;11.20;99.90
39079;DHT22;24829;49.208;12.080;2022-10-17T05:15:37;11.20;99.90
39079;DHT22;24829;49.208;12.080;2022-10-17T05:18:04;11.20;99.90
39079;DHT22;24829;49.208;12.080;2022-10-17T05:20:30;11.20;99.90
39079;DHT22;24829;49.208;12.080;2022-10-17T05:22:59;11.20;99.90
39079;DHT22;24829;49.208;12.080;2022-10-17T05:25:25;11.10;99.90
39079;DHT22;24829;49.208;12.080;2022-10-17T05:27:50;11.10;99.90
39079;DHT22;24829;49.208;12.080;2022-10-17T05:30:16;11.10;99.90
39079;DHT22;24829;49.208;12.080;2022-10-17T05:32:41;11.00;99.90
39079;DHT22;24829;49.208;12.080;2022-10-17T05:35:07;11.00;99.90
39079;DHT22;24829;49.208;12.080;2022-10-17T05:37:33;11.00;99.90
39079;DHT22;24829;49.208;12.080;2022-10-17T05:39:58;11.00;99.90
39079;DHT22;24829;49.208;12.080;2022-10-17T05:42:24;11.00;99.90
39079;DHT22;24829;49.208;12.080;2022-10-17T05:44:50;10.90;99.90
39079;DHT22;24829;49.208;12.080;2022-10-17T05:47:15;10.90;99.90
39079;DHT22;24829;49.208;12.080;2022-10-17T05:49:41;10.80;99.90
39079;DHT22;24829;49.208;12.080;2022-10-17T05:52:07;10.80;99.90
39079;DHT22;24829;49.208;12.080;2022-10-17T05:54:32;10.70;99.90
39079;DHT22;24829;49.208;12.080;2022-10-17T05:56:58;10.60;99.90
39079;DHT22;24829;49.208;12.080;2022-10-17T05:59:24;10.60;99.90
39079;DHT22;24829;49.208;12.080;2022-10-17T06:01:50;10.60;99.90
39079;DHT22;24829;49.208;12.080;2022-10-17T06:04:16;10.60;99.90
39079;DHT22;24829;49.208;12.080;2022-10-17T06:06:42;10.60;99.90
39079;DHT22;24829;49.208;12.080;2022-10-17T06:09:08;10.70;99.90
39079;DHT22;24829;49.208;12.080;2022-10-17T06:11:34;10.70;99.90
39079;DHT22;24829;49.208;12.080;2022-10-17T06:14:00;10.70;99.90
39079;DHT22;24829;49.208;12.080;2022-10-17T06:16:26;10.80;99.90
39079;DHT22;24829;49.208;12.080;2022-10-17T06:18:51;10.80;99.90
39079;DHT22;24829;49.208;12.080;2022-10-17T06:21:20;10.80;99.90
39079;DHT22;24829;49.208;12.080;2022-10-17T06:23:46;10.90;99.90
39079;DHT22;24829;49.208;12.080;2022-10-17T06:26:12;11.00;99.90
39079;DHT22;24829;49.208;12.080;2022-10-17T06:28:38;11.00;99.90
39079;DHT22;24829;49.208;12.080;2022-10-17T06:31:09;11.10;99.90
39079;DHT22;24829;49.208;12.080;2022-10-17T06:33:35;11.20;99.90
39079;DHT22;24829;49.208;12.080;2022-10-17T06:36:02;11.20;99.90
39079;DHT22;24829;49.208;12.080;2022-10-17T06:38:28;11.30;99.90
39079;DHT22;24829;49.208;12.080;2022-10-17T06:40:54;11.40;99.90
39079;DHT22;24829;49.208;12.080;2022-10-17T06:43:26;11.50;99.90
39079;DHT22;24829;49.208;12.080;2022-10-17T06:45:52;11.50;99.90
39079;DHT22;24829;49.208;12.080;2022-10-17T06:48:17;11.60;99.90
39079;DHT22;24829;49.208;12.080;2022-10-17T06:50:43;11.70;99.90
39079;DHT22;24829;49.208;12.080;2022-10-17T06:53:08;11.80;99.90
39079;DHT22;24829;49.208;12.080;2022-10-17T06:55:34;11.90;99.90
39079;DHT22;24829;49.208;12.080;2022-10-17T06:57:59;11.90;99.90
39079;DHT22;24829;49.208;12.080;2022-10-17T07:00:25;11.90;99.90
39079;DHT22;24829;49.208;12.080;2022-10-17T07:02:51;12.00;99.90
39079;DHT22;24829;49.208;12.080;2022-10-17T07:05:17;12.10;99.90
39079;DHT22;24829;49.208;12.080;2022-10-17T07:07:44;12.10;99.90
39079;DHT22;24829;49.208;12.080;2022-10-17T07:10:09;12.20;99.90
39079;DHT22;24829;49.208;12.080;2022-10-17T07:12:35;12.30;99.90
39079;DHT22;24829;49.208;12.080;2022-10-17T07:15:02;12.40;99.90
39079;DHT22;24829;49.208;12.080;2022-10-17T07:17:29;12.40;99.90
39079;DHT22;24829;49.208;12.080;2022-10-17T07:19:54;12.40;99.90
39079;DHT22;24829;49.208;12.080;2022-10-17T07:22:20;12.50;99.90
39079;DHT22;24829;49.208;12.080;2022-10-17T07:24:46;12.60;99.90
39079;DHT22;24829;49.208;12.080;2022-10-17T07:27:12;12.70;99.90
39079;DHT22;24829;49.208;12.080;2022-10-17T07:29:38;12.80;99.90
39079;DHT22;24829;49.208;12.080;2022-10-17T07:32:03;12.80;99.90
39079;DHT22;24829;49.208;12.080;2022-10-17T07:34:36;12.80;99.90
39079;DHT22;24829;49.208;12.080;2022-10-17T07:37:02;12.80;99.90
39079;DHT22;24829;49.208;12.080;2022-10-17T07:39:28;12.80;99.90
39079;DHT22;24829;49.208;12.080;2022-10-17T07:41:54;12.90;99.90
39079;DHT22;24829;49.208;12.080;2022-10-17T07:44:19;13.00;99.90
39079;DHT22;24829;49.208;12.080;2022-10-17T07:46:45;13.00;99.90
39079;DHT22;24829;49.208;12.080;2022-10-17T07:49:10;13.10;99.90
39079;DHT22;24829;49.208;12.080;2022-10-17T07:51:36;13.20;99.90
39079;DHT22;24829;49.208;12.080;2022-10-17T07:54:04;13.20;99.90
39079;DHT22;24829;49.208;12.080;2022-10-17T07:56:30;13.30;99.90
39079;DHT22;24829;49.208;12.080;2022-10-17T07:58:56;13.30;99.90
39079;DHT22;24829;49.208;12.080;2022-10-17T08:01:22;13.40;99.90
39079;DHT22;24829;49.208;12.080;2022-10-17T08:03:50;13.40;99.90
39079;DHT22;24829;49.208;12.080;2022-10-17T08:06:15;13.40;99.90
39079;DHT22;24829;49.208;12.080;2022-10-17T08:08:41;13.50;99.90
39079;DHT22;24829;49.208;12.080;2022-10-17T08:11:09;13.50;99.90
39079;DHT22;24829;49.208;12.080;2022-10-17T08:13:36;13.60;99.90
39079;DHT22;24829;49.208;12.080;2022-10-17T08:16:04;13.60;99.90
39079;DHT22;24829;49.208;12.080;2022-10-17T08:18:31;13.70;99.90
39079;DHT22;24829;49.208;12.080;2022-10-17T08:21:01;13.70;99.90
39079;DHT22;24829;49.208;12.080;2022-10-17T08:23:28;13.80;99.90
39079;DHT22;24829;49.208;12.080;2022-10-17T08:25:54;13.80;99.90
39079;DHT22;24829;49.208;12.080;2022-10-17T08:28:22;13.90;99.90
39079;DHT22;24829;49.208;12.080;2022-10-17T08:30:48;13.90;99.90
39079;DHT22;24829;49.208;12.080;2022-10-17T08:33:13;14.00;99.90
39079;DHT22;24829;49.208;12.080;2022-10-17T08:35:39;14.00;99.90
39079;DHT22;24829;49.208;12.080;2022-10-17T08:38:04;14.10;99.90
39079;DHT22;24829;49.208;12.080;2022-10-17T08:40:31;14.20;99.90
39079;DHT22;24829;49.208;12.080;2022-10-17T08:45:44;14.30;99.90
39079;DHT22;24829;49.208;12.080;2022-10-17T08:48:17;14.40;99.90
39079;DHT22;24829;49.208;12.080;2022-10-17T08:50:56;14.40;99.90
39079;DHT22;24829;49.208;12.080;2022-10-17T08:53:34;14.50;99.90
39079;DHT22;24829;49.208;12.080;2022-10-17T08:56:16;14.50;99.90
39079;DHT22;24829;49.208;12.080;2022-10-17T08:58:42;14.60;99.90
39079;DHT22;24829;49.208;12.080;2022-10-17T09:01:20;14.60;99.90
39079;DHT22;24829;49.208;12.080;2022-10-17T09:06:24;14.80;99.90
39079;DHT22;24829;49.208;12.080;2022-10-17T09:17:24;15.00;99.90
39079;DHT22;24829;49.208;12.080;2022-10-17T09:20:00;15.10;99.90
39079;DHT22;24829;49.208;12.080;2022-10-17T09:22:32;15.20;99.90
39079;DHT22;24829;49.208;12.080;2022-10-17T09:25:04;15.30;99.90
39079;DHT22;24829;49.208;12.080;2022-10-17T09:27:48;15.40;99.90
39079;DHT22;24829;49.208;12.080;2022-10-17T09:33:10;15.60;99.90
39079;DHT22;24829;49.208;12.080;2022-10-17T09:35:37;15.70;99.90
39079;DHT22;24829;49.208;12.080;2022-10-17T09:38:04;15.70;99.90
39079;DHT22;24829;49.208;12.080;2022-10-17T09:40:34;15.80;99.90
39079;DHT22;24829;49.208;12.080;2022-10-17T09:43:02;15.90;99.90
39079;DHT22;24829;49.208;12.080;2022-10-17T09:45:32;15.90;99.90
39079;DHT22;24829;49.208;12.080;2022-10-17T09:48:07;15.90;99.90
39079;DHT22;24829;49.208;12.080;2022-10-17T09:50:35;16.00;99.90
39079;DHT22;24829;49.208;12.080;2022-10-17T09:53:17;16.00;99.90
39079;DHT22;24829;49.208;12.080;2022-10-17T09:55:46;16.10;99.90
39079;DHT22;24829;49.208;12.080;2022-10-17T09:58:13;16.20;99.90
39079;DHT22;24829;49.208;12.080;2022-10-17T10:00:41;16.30;99.90
39079;DHT22;24829;49.208;12.080;2022-10-17T10:05:33;16.70;99.90
39079;DHT22;24829;49.208;12.080;2022-10-17T10:08:13;16.80;99.90
39079;DHT22;24829;49.208;12.080;2022-10-17T10:10:39;17.00;99.90
39079;DHT22;24829;49.208;12.080;2022-10-17T10:15:48;17.20;99.90
39079;DHT22;24829;49.208;12.080;2022-10-17T10:18:35;17.40;99.90
39079;DHT22;24829;49.208;12.080;2022-10-17T10:23:42;17.50;99.90
39079;DHT22;24829;49.208;12.080;2022-10-17T10:26:15;17.70;99.90
39079;DHT22;24829;49.208;12.080;2022-10-17T10:29:35;17.80;99.90
39079;DHT22;24829;49.208;12.080;2022-10-17T10:31:38;17.90;99.90
39079;DHT22;24829;49.208;12.080;2022-10-17T10:37:01;18.00;99.90
39079;DHT22;24829;49.208;12.080;2022-10-17T10:39:39;18.10;99.90
39079;DHT22;24829;49.208;12.080;2022-10-17T10:42:16;18.20;99.90
39079;DHT22;24829;49.208;12.080;2022-10-17T10:44:42;18.20;99.90
39079;DHT22;24829;49.208;12.080;2022-10-17T10:47:26;18.30;99.90
39079;DHT22;24829;49.208;12.080;2022-10-17T10:50:25;18.40;99.90
39079;DHT22;24829;49.208;12.080;2022-10-17T10:55:33;18.50;99.90
39079;DHT22;24829;49.208;12.080;2022-10-17T10:58:03;18.60;99.90
39079;DHT22;24829;49.208;12.080;2022-10-17T11:00:31;18.50;99.90
39079;DHT22;24829;49.208;12.080;2022-10-17T11:03:21;18.60;99.90
39079;DHT22;24829;49.208;12.080;2022-10-17T11:05:58;18.70;99.90
39079;DHT22;24829;49.208;12.080;2022-10-17T11:08:33;18.70;99.90
39079;DHT22;24829;49.208;12.080;2022-10-17T11:13:51;18.90;99.90
39079;DHT22;24829;49.208;12.080;2022-10-17T11:16:39;18.90;99.90
39079;DHT22;24829;49.208;12.080;2022-10-17T11:19:15;18.90;99.90
39079;DHT22;24829;49.208;12.080;2022-10-17T11:21:52;18.90;99.90
39079;DHT22;24829;49.208;12.080;2022-10-17T11:24:29;19.00;99.90
39079;DHT22;24829;49.208;12.080;2022-10-17T11:27:02;19.00;99.90
39079;DHT22;24829;49.208;12.080;2022-10-17T11:29:31;19.00;99.90
39079;DHT22;24829;49.208;12.080;2022-10-17T11:32:12;19.00;99.90
39079;DHT22;24829;49.208;12.080;2022-10-17T11:34:49;19.10;99.90
39079;DHT22;24829;49.208;12.080;2022-10-17T11:37:29;19.10;99.90
39079;DHT22;24829;49.208;12.080;2022-10-17T11:40:48;19.20;99.90
39079;DHT22;24829;49.208;12.080;2022-10-17T11:43:00;19.20;99.90
39079;DHT22;24829;49.208;12.080;2022-10-17T11:45:29;19.20;99.90
39079;DHT22;24829;49.208;12.080;2022-10-17T11:48:06;19.30;99.90
39079;DHT22;24829;49.208;12.080;2022-10-17T11:50:38;19.30;99.90
39079;DHT22;24829;49.208;12.080;2022-10-17T11:53:09;19.30;99.90
39079;DHT22;24829;49.208;12.080;2022-10-17T11:55:36;19.30;99.90
39079;DHT22;24829;49.208;12.080;2022-10-17T12:01:14;19.30;99.90
39079;DHT22;24829;49.208;12.080;2022-10-17T12:06:55;19.50;99.90
39079;DHT22;24829;49.208;12.080;2022-10-17T12:09:29;19.60;99.90
39079;DHT22;24829;49.208;12.080;2022-10-17T12:11:59;19.60;99.90
39079;DHT22;24829;49.208;12.080;2022-10-17T12:14:42;19.60;99.90
39079;DHT22;24829;49.208;12.080;2022-10-17T12:19:47;19.60;99.90
39079;DHT22;24829;49.208;12.080;2022-10-17T12:22:24;19.60;99.90
39079;DHT22;24829;49.208;12.080;2022-10-17T12:30:01;19.60;99.90
39079;DHT22;24829;49.208;12.080;2022-10-17T12:32:28;19.60;99.90
39079;DHT22;24829;49.208;12.080;2022-10-17T12:34:55;19.60;99.90
39079;DHT22;24829;49.208;12.080;2022-10-17T12:45:51;19.70;99.90
39079;DHT22;24829;49.208;12.080;2022-10-17T12:48:59;19.70;99.90
39079;DHT22;24829;49.208;12.080;2022-10-17T12:51:26;19.90;99.90
39079;DHT22;24829;49.208;12.080;2022-10-17T12:56:37;19.80;99.90
39079;DHT22;24829;49.208;12.080;2022-10-17T13:01:38;19.70;99.90
39079;DHT22;24829;49.208;12.080;2022-10-17T13:04:05;19.70;99.90
39079;DHT22;24829;49.208;12.080;2022-10-17T13:06:37;19.60;99.90
39079;DHT22;24829;49.208;12.080;2022-10-17T13:09:07;19.60;99.90
39079;DHT22;24829;49.208;12.080;2022-10-17T13:11:36;19.60;99.90
39079;DHT22;24829;49.208;12.080;2022-10-17T13:14:11;19.50;99.90
39079;DHT22;24829;49.208;12.080;2022-10-17T13:16:39;19.50;99.90
39079;DHT22;24829;49.208;12.080;2022-10-17T13:19:17;19.50;99.90
39079;DHT22;24829;49.208;12.080;2022-10-17T13:21:53;19.40;99.90
39079;DHT22;24829;49.208;12.080;2022-10-17T13:26:54;19.30;99.90
39079;DHT22;24829;49.208;12.080;2022-10-17T13:29:20;19.20;99.90
39079;DHT22;24829;49.208;12.080;2022-10-17T13:31:55;19.20;99.90
39079;DHT22;24829;49.208;12.080;2022-10-17T13:34:23;19.20;99.90
39079;DHT22;24829;49.208;12.080;2022-10-17T13:36:51;19.10;99.90
39079;DHT22;24829;49.208;12.080;2022-10-17T13:39:20;19.10;99.90
39079;DHT22;24829;49.208;12.080;2022-10-17T13:41:46;19.10;99.90
39079;DHT22;24829;49.208;12.080;2022-10-17T13:44:15;19.00;99.90
39079;DHT22;24829;49.208;12.080;2022-10-17T13:46:42;19.00;99.90
39079;DHT22;24829;49.208;12.080;2022-10-17T13:51:53;19.00;99.90
39079;DHT22;24829;49.208;12.080;2022-10-17T13:54:40;18.90;99.90
39079;DHT22;24829;49.208;12.080;2022-10-17T13:57:17;19.00;99.90
39079;DHT22;24829;49.208;12.080;2022-10-17T13:59:45;18.90;99.90
39079;DHT22;24829;49.208;12.080;2022-10-17T14:02:20;18.90;99.90
39079;DHT22;24829;49.208;12.080;2022-10-17T14:04:46;19.00;99.90
39079;DHT22;24829;49.208;12.080;2022-10-17T14:07:37;19.00;99.90
39079;DHT22;24829;49.208;12.080;2022-10-17T14:10:05;19.00;99.90
39079;DHT22;24829;49.208;12.080;2022-10-17T14:12:32;19.00;99.90
39079;DHT22;24829;49.208;12.080;2022-10-17T14:15:01;19.00;99.90
39079;DHT22;24829;49.208;12.080;2022-10-17T14:17:28;18.90;99.90
39079;DHT22;24829;49.208;12.080;2022-10-17T14:20:00;18.90;99.90
39079;DHT22;24829;49.208;12.080;2022-10-17T14:22:28;18.90;99.90
39079;DHT22;24829;49.208;12.080;2022-10-17T14:24:55;18.80;99.90
39079;DHT22;24829;49.208;12.080;2022-10-17T14:32:56;18.80;99.90
39079;DHT22;24829;49.208;12.080;2022-10-17T14:35:22;18.70;99.90
39079;DHT22;24829;49.208;12.080;2022-10-17T14:37:50;18.70;99.90
39079;DHT22;24829;49.208;12.080;2022-10-17T14:40:21;18.70;99.90
39079;DHT22;24829;49.208;12.080;2022-10-17T14:42:52;18.70;99.90
39079;DHT22;24829;49.208;12.080;2022-10-17T14:45:35;18.60;99.90
39079;DHT22;24829;49.208;12.080;2022-10-17T14:48:07;18.60;99.90
39079;DHT22;24829;49.208;12.080;2022-10-17T14:50:34;18.50;99.90
39079;DHT22;24829;49.208;12.080;2022-10-17T14:53:02;18.50;99.90
39079;DHT22;24829;49.208;12.080;2022-10-17T14:55:29;18.50;99.90
39079;DHT22;24829;49.208;12.080;2022-10-17T14:57:55;18.50;99.90
39079;DHT22;24829;49.208;12.080;2022-10-17T15:00:22;18.50;99.90
39079;DHT22;24829;49.208;12.080;2022-10-17T15:02:49;18.50;99.90
39079;DHT22;24829;49.208;12.080;2022-10-17T15:05:15;18.60;99.90
39079;DHT22;24829;49.208;12.080;2022-10-17T15:07:42;18.50;99.90
39079;DHT22;24829;49.208;12.080;2022-10-17T15:10:34;18.50;99.90
39079;DHT22;24829;49.208;12.080;2022-10-17T15:13:01;18.50;99.90
39079;DHT22;24829;49.208;12.080;2022-10-17T15:15:28;18.40;99.90
39079;DHT22;24829;49.208;12.080;2022-10-17T15:17:54;18.40;99.90
39079;DHT22;24829;49.208;12.080;2022-10-17T15:20:20;18.40;99.90
39079;DHT22;24829;49.208;12.080;2022-10-17T15:22:51;18.40;99.90
39079;DHT22;24829;49.208;12.080;2022-10-17T15:25:17;18.30;99.90
39079;DHT22;24829;49.208;12.080;2022-10-17T15:27:42;18.20;99.90
39079;DHT22;24829;49.208;12.080;2022-10-17T15:30:25;18.20;99.90
39079;DHT22;24829;49.208;12.080;2022-10-17T15:32:51;18.20;99.90
39079;DHT22;24829;49.208;12.080;2022-10-17T15:35:18;18.10;99.90
39079;DHT22;24829;49.208;12.080;2022-10-17T15:37:44;18.00;99.90
39079;DHT22;24829;49.208;12.080;2022-10-17T15:40:15;18.00;99.90
39079;DHT22;24829;49.208;12.080;2022-10-17T15:42:41;17.90;99.90
39079;DHT22;24829;49.208;12.080;2022-10-17T15:45:11;17.80;99.90
39079;DHT22;24829;49.208;12.080;2022-10-17T15:47:37;17.80;99.90
39079;DHT22;24829;49.208;12.080;2022-10-17T15:50:04;17.70;99.90
39079;DHT22;24829;49.208;12.080;2022-10-17T15:52:31;17.70;99.90
39079;DHT22;24829;49.208;12.080;2022-10-17T15:54:56;17.60;99.90
39079;DHT22;24829;49.208;12.080;2022-10-17T15:57:27;17.60;99.90
39079;DHT22;24829;49.208;12.080;2022-10-17T15:59:54;17.50;99.90
39079;DHT22;24829;49.208;12.080;2022-10-17T16:02:22;17.50;99.90
39079;DHT22;24829;49.208;12.080;2022-10-17T16:04:49;17.40;99.90
39079;DHT22;24829;49.208;12.080;2022-10-17T16:07:16;17.30;99.90
39079;DHT22;24829;49.208;12.080;2022-10-17T16:09:41;17.30;99.90
39079;DHT22;24829;49.208;12.080;2022-10-17T16:12:32;17.20;99.90
39079;DHT22;24829;49.208;12.080;2022-10-17T16:15:01;17.20;99.90
39079;DHT22;24829;49.208;12.080;2022-10-17T16:17:27;17.10;99.90
39079;DHT22;24829;49.208;12.080;2022-10-17T16:19:53;17.00;99.90
39079;DHT22;24829;49.208;12.080;2022-10-17T16:22:30;17.00;99.90
39079;DHT22;24829;49.208;12.080;2022-10-17T16:25:02;16.90;99.90
39079;DHT22;24829;49.208;12.080;2022-10-17T16:27:35;16.80;99.90
39079;DHT22;24829;49.208;12.080;2022-10-17T16:30:02;16.80;99.90
39079;DHT22;24829;49.208;12.080;2022-10-17T16:32:28;16.70;99.90
39079;DHT22;24829;49.208;12.080;2022-10-17T16:34:53;16.60;99.90
39079;DHT22;24829;49.208;12.080;2022-10-17T16:37:19;16.50;99.90
39079;DHT22;24829;49.208;12.080;2022-10-17T16:39:45;16.50;99.90
39079;DHT22;24829;49.208;12.080;2022-10-17T16:42:17;16.40;99.90
39079;DHT22;24829;49.208;12.080;2022-10-17T16:44:43;16.30;99.90
39079;DHT22;24829;49.208;12.080;2022-10-17T16:47:08;16.30;99.90
39079;DHT22;24829;49.208;12.080;2022-10-17T16:49:34;16.20;99.90
39079;DHT22;24829;49.208;12.080;2022-10-17T16:52:00;16.20;99.90
39079;DHT22;24829;49.208;12.080;2022-10-17T16:54:25;16.10;99.90
39079;DHT22;24829;49.208;12.080;2022-10-17T16:56:51;16.10;99.90
39079;DHT22;24829;49.208;12.080;2022-10-17T16:59:16;16.10;99.90
39079;DHT22;24829;49.208;12.080;2022-10-17T17:01:42;16.00;99.90
39079;DHT22;24829;49.208;12.080;2022-10-17T17:04:07;16.00;99.90
39079;DHT22;24829;49.208;12.080;2022-10-17T17:06:33;15.90;99.90
39079;DHT22;24829;49.208;12.080;2022-10-17T17:08:59;15.90;99.90
39079;DHT22;24829;49.208;12.080;2022-10-17T17:11:26;15.90;99.90
39079;DHT22;24829;49.208;12.080;2022-10-17T17:13:55;15.90;99.90
39079;DHT22;24829;49.208;12.080;2022-10-17T17:16:22;15.80;99.90
39079;DHT22;24829;49.208;12.080;2022-10-17T17:18:52;15.90;99.90
39079;DHT22;24829;49.208;12.080;2022-10-17T17:21:18;15.80;99.90